createdAt,value
2023-04-07T00:00:05.227Z,7.10
2023-04-07T00:02:34.019Z,7.10
2023-04-07T00:05:03.274Z,7.10
2023-04-07T00:07:33.829Z,7.10
2023-04-07T00:10:06.756Z,7.10
2023-04-07T00:12:36.177Z,7.10
2023-04-07T00:15:06.967Z,7.10
2023-04-07T00:17:35.681Z,7.10
2023-04-07T00:20:04.541Z,7.10
2023-04-07T00:22:33.574Z,7.10
2023-04-07T00:25:02.175Z,7.10
2023-04-07T00:27:30.853Z,7.10
2023-04-07T00:29:59.516Z,7.10
2023-04-07T00:32:29.815Z,7.10
2023-04-07T00:34:58.487Z,7.10
2023-04-07T00:37:31.014Z,7.20
2023-04-07T00:39:59.839Z,7.20
2023-04-07T00:42:28.709Z,7.20
2023-04-07T00:44:57.348Z,7.20
2023-04-07T00:47:26.287Z,7.20
2023-04-07T00:49:56.432Z,7.20
2023-04-07T00:52:30.279Z,7.30
2023-04-07T00:54:59.095Z,7.30
2023-04-07T00:57:27.906Z,7.30
2023-04-07T00:59:57.589Z,7.30
2023-04-07T01:02:35.353Z,7.30
2023-04-07T01:05:13.434Z,7.30
2023-04-07T01:07:50.832Z,7.30
2023-04-07T01:10:27.874Z,7.30
2023-04-07T01:13:03.759Z,7.30
2023-04-07T01:15:34.365Z,7.30
2023-04-07T01:18:09.878Z,7.30
2023-04-07T01:20:41.167Z,7.40
2023-04-07T01:23:10.432Z,7.40
2023-04-07T01:26:02.344Z,7.30
2023-04-07T01:28:46.077Z,7.30
2023-04-07T01:31:16.987Z,7.30
2023-04-07T01:33:47.636Z,7.30
2023-04-07T01:36:17.838Z,7.30
2023-04-07T01:38:47.393Z,7.30
2023-04-07T01:41:18.225Z,7.40
2023-04-07T01:43:48.898Z,7.40
2023-04-07T01:46:18.909Z,7.40
2023-04-07T01:48:48.494Z,7.50
2023-04-07T01:51:19.134Z,7.50
2023-04-07T01:53:48.355Z,7.50
2023-04-07T01:56:17.352Z,7.50
2023-04-07T01:58:45.894Z,7.50
2023-04-07T02:01:15.782Z,7.50
2023-04-07T02:03:54.556Z,7.50
2023-04-07T02:06:29.784Z,7.50
2023-04-07T02:09:04.454Z,7.50
2023-04-07T02:11:35.816Z,7.50
2023-04-07T02:14:07.773Z,7.50
2023-04-07T02:16:38.018Z,7.50
2023-04-07T02:19:08.276Z,7.50
2023-04-07T02:21:38.237Z,7.50
2023-04-07T02:24:08.478Z,7.50
2023-04-07T02:26:37.627Z,7.40
2023-04-07T02:29:06.541Z,7.50
2023-04-07T02:31:35.752Z,7.40
2023-04-07T02:34:04.392Z,7.50
2023-04-07T02:36:34.421Z,7.50
2023-04-07T02:39:03.003Z,7.50
2023-04-07T02:41:31.849Z,7.50
2023-04-07T02:44:00.450Z,7.50
2023-04-07T02:46:29.090Z,7.60
2023-04-07T02:48:57.694Z,7.60
2023-04-07T02:51:27.254Z,7.60
2023-04-07T02:53:57.352Z,7.60
2023-04-07T02:56:26.018Z,7.60
2023-04-07T02:58:54.662Z,7.60
2023-04-07T03:01:23.300Z,7.60
2023-04-07T03:03:52.276Z,7.60
2023-04-07T03:06:21.328Z,7.60
2023-04-07T03:08:49.843Z,7.70
2023-04-07T03:11:19.735Z,7.70
2023-04-07T03:13:48.323Z,7.70
2023-04-07T03:16:16.890Z,7.70
2023-04-07T03:18:45.605Z,7.70
2023-04-07T03:21:14.832Z,7.70
2023-04-07T03:23:43.686Z,7.70
2023-04-07T03:26:12.126Z,7.70
2023-04-07T03:28:42.146Z,7.70
2023-04-07T03:31:10.618Z,7.70
2023-04-07T03:33:39.287Z,7.70
2023-04-07T03:36:09.681Z,7.70
2023-04-07T03:38:38.303Z,7.70
2023-04-07T03:41:06.806Z,7.60
2023-04-07T03:43:35.384Z,7.60
2023-04-07T03:46:05.506Z,7.60
2023-04-07T03:48:34.079Z,7.60
2023-04-07T03:51:03.109Z,7.60
2023-04-07T03:53:31.656Z,7.50
2023-04-07T03:56:01.137Z,7.50
2023-04-07T03:58:29.747Z,7.50
2023-04-07T04:00:58.575Z,7.60
2023-04-07T04:03:28.824Z,7.60
2023-04-07T04:05:57.481Z,7.60
2023-04-07T04:08:25.998Z,7.60
2023-04-07T04:10:54.898Z,7.60
2023-04-07T04:13:23.447Z,7.60
2023-04-07T04:15:52.580Z,7.70
2023-04-07T04:18:21.270Z,7.60
2023-04-07T04:20:51.828Z,7.60
2023-04-07T04:23:20.286Z,7.70
2023-04-07T04:25:48.891Z,7.60
2023-04-07T04:28:17.420Z,7.60
2023-04-07T04:30:45.875Z,7.60
2023-04-07T04:33:14.332Z,7.60
2023-04-07T04:35:43.113Z,7.60
2023-04-07T04:38:13.513Z,7.60
2023-04-07T04:40:42.011Z,7.60
2023-04-07T04:43:10.641Z,7.60
2023-04-07T04:45:39.158Z,7.60
2023-04-07T04:48:07.988Z,7.60
2023-04-07T04:50:37.401Z,7.60
2023-04-07T04:53:05.880Z,7.60
2023-04-07T04:55:35.790Z,7.60
2023-04-07T04:58:04.349Z,7.60
2023-04-07T05:00:33.139Z,7.60
2023-04-07T05:03:03.366Z,7.60
2023-04-07T05:05:32.072Z,7.60
2023-04-07T05:08:47.758Z,7.60
2023-04-07T05:11:19.069Z,7.60
2023-04-07T05:13:47.618Z,7.60
2023-04-07T05:16:16.066Z,7.60
2023-04-07T05:18:44.687Z,7.60
2023-04-07T05:21:13.508Z,7.60
2023-04-07T05:23:42.643Z,7.60
2023-04-07T05:26:11.545Z,7.60
2023-04-07T05:28:41.596Z,7.60
2023-04-07T05:31:10.527Z,7.60
2023-04-07T05:33:39.035Z,7.50
2023-04-07T05:36:08.337Z,7.60
2023-04-07T05:38:36.925Z,7.60
2023-04-07T05:41:05.922Z,7.60
2023-04-07T05:43:34.447Z,7.60
2023-04-07T05:46:04.617Z,7.50
2023-04-07T05:48:33.751Z,7.50
2023-04-07T05:51:02.353Z,7.50
2023-04-07T05:53:31.060Z,7.50
2023-04-07T05:56:00.675Z,7.50
2023-04-07T05:58:29.319Z,7.50
2023-04-07T06:03:51.141Z,7.50
2023-04-07T06:06:20.057Z,7.50
2023-04-07T06:08:48.845Z,7.50
2023-04-07T06:11:17.858Z,7.60
2023-04-07T06:13:46.996Z,7.60
2023-04-07T06:16:17.469Z,7.60
2023-04-07T06:18:47.823Z,7.60
2023-04-07T06:21:17.946Z,7.50
2023-04-07T06:23:46.695Z,7.60
2023-04-07T06:26:15.984Z,7.50
2023-04-07T06:28:45.206Z,7.50
2023-04-07T06:31:14.034Z,7.10
2023-04-07T06:33:42.880Z,7.50
2023-04-07T06:36:11.638Z,7.60
2023-04-07T06:38:42.127Z,7.60
2023-04-07T06:41:13.229Z,7.70
2023-04-07T06:43:42.218Z,7.70
2023-04-07T06:46:11.417Z,7.60
2023-04-07T06:48:40.597Z,7.70
2023-04-07T06:51:09.384Z,7.70
2023-04-07T06:53:38.280Z,7.60
2023-04-07T06:56:10.236Z,7.70
2023-04-07T06:58:39.775Z,7.70
2023-04-07T07:01:09.471Z,7.70
2023-04-07T07:03:38.735Z,7.70
2023-04-07T07:06:11.374Z,7.70
2023-04-07T07:08:40.280Z,7.80
2023-04-07T07:11:11.659Z,7.80
2023-04-07T07:13:40.787Z,7.80
2023-04-07T07:16:09.763Z,7.90
2023-04-07T07:18:38.771Z,7.90
2023-04-07T07:21:08.287Z,7.90
2023-04-07T07:23:37.017Z,7.90
2023-04-07T07:26:06.427Z,6.80
2023-04-07T07:28:37.473Z,7.90
2023-04-07T07:31:13.323Z,7.90
2023-04-07T07:33:44.733Z,8.00
2023-04-07T07:36:13.985Z,8.00
2023-04-07T07:38:42.780Z,8.00
2023-04-07T07:41:11.822Z,8.00
2023-04-07T07:43:42.297Z,8.00
2023-04-07T07:46:11.293Z,7.60
2023-04-07T07:48:40.531Z,8.10
2023-04-07T07:51:14.749Z,8.10
2023-04-07T07:53:43.564Z,8.10
2023-04-07T07:56:13.281Z,8.20
2023-04-07T07:58:43.592Z,8.20
2023-04-07T08:01:12.430Z,8.20
2023-04-07T08:03:41.663Z,8.30
2023-04-07T08:06:13.468Z,8.30
2023-04-07T08:08:45.110Z,8.30
2023-04-07T08:11:14.484Z,8.30
2023-04-07T08:13:46.954Z,8.30
2023-04-07T08:16:16.316Z,8.30
2023-04-07T08:18:45.495Z,8.40
2023-04-07T08:21:14.992Z,8.40
2023-04-07T08:23:43.736Z,8.40
2023-04-07T08:26:12.651Z,8.50
2023-04-07T08:28:42.205Z,8.60
2023-04-07T08:31:12.550Z,8.60
2023-04-07T08:33:42.074Z,8.60
2023-04-07T08:36:11.339Z,8.60
2023-04-07T08:38:40.278Z,8.60
2023-04-07T08:41:13.506Z,8.60
2023-04-07T08:43:47.428Z,8.70
2023-04-07T08:46:23.103Z,8.70
2023-04-07T08:48:53.999Z,8.80
2023-04-07T08:51:30.182Z,8.90
2023-04-07T08:54:06.986Z,8.90
2023-04-07T08:56:37.123Z,8.90
2023-04-07T08:59:08.700Z,8.90
2023-04-07T09:01:39.369Z,9.00
2023-04-07T09:04:09.239Z,9.00
2023-04-07T09:06:38.094Z,9.10
2023-04-07T09:09:07.497Z,9.00
2023-04-07T09:11:38.677Z,9.00
2023-04-07T09:14:07.992Z,9.10
2023-04-07T09:16:38.427Z,9.20
2023-04-07T09:19:08.136Z,9.20
2023-04-07T09:21:50.802Z,9.20
2023-04-07T09:24:27.206Z,9.20
2023-04-07T09:27:17.066Z,9.30
2023-04-07T09:29:48.163Z,9.40
2023-04-07T09:32:36.907Z,9.40
2023-04-07T09:35:06.897Z,9.50
2023-04-07T09:37:35.862Z,9.50
2023-04-07T09:40:09.307Z,9.40
2023-04-07T09:42:46.517Z,9.40
2023-04-07T09:45:34.058Z,9.40
2023-04-07T09:48:09.319Z,9.40
2023-04-07T09:50:41.584Z,9.40
2023-04-07T09:53:10.841Z,9.40
2023-04-07T09:55:42.868Z,9.30
2023-04-07T09:58:19.025Z,9.30
2023-04-07T10:00:48.403Z,9.20
2023-04-07T10:03:20.136Z,9.20
2023-04-07T10:05:49.859Z,9.10
2023-04-07T10:08:20.244Z,9.10
2023-04-07T10:10:51.563Z,9.20
2023-04-07T10:13:20.989Z,9.10
2023-04-07T10:15:50.252Z,9.20
2023-04-07T10:18:22.459Z,9.00
2023-04-07T10:20:52.085Z,8.90
2023-04-07T10:23:27.459Z,8.90
2023-04-07T10:25:58.864Z,8.80
2023-04-07T10:28:30.655Z,8.70
2023-04-07T10:31:00.513Z,8.80
2023-04-07T10:33:50.195Z,8.80
2023-04-07T10:36:23.383Z,8.80
2023-04-07T10:39:22.748Z,8.80
2023-04-07T10:41:52.204Z,8.80
2023-04-07T10:44:55.297Z,8.90
2023-04-07T10:47:27.618Z,9.00
2023-04-07T10:50:23.908Z,9.10
2023-04-07T10:53:08.848Z,9.00
2023-04-07T10:55:40.283Z,9.00
2023-04-07T10:58:29.702Z,9.00
2023-04-07T11:01:22.560Z,8.90
2023-04-07T11:04:02.876Z,8.80
2023-04-07T11:06:33.340Z,8.80
2023-04-07T11:09:02.418Z,8.90
2023-04-07T11:11:42.697Z,9.00
2023-04-07T11:14:11.860Z,9.10
2023-04-07T11:16:46.343Z,9.10
2023-04-07T11:19:17.155Z,9.20
2023-04-07T11:21:47.727Z,9.20
2023-04-07T11:24:34.202Z,9.20
2023-04-07T11:27:03.818Z,9.20
2023-04-07T11:29:33.427Z,9.10
2023-04-07T11:32:03.707Z,9.00
2023-04-07T11:34:33.371Z,9.00
2023-04-07T11:37:22.678Z,8.90
2023-04-07T11:39:54.551Z,8.90
2023-04-07T11:42:34.236Z,8.90
2023-04-07T11:45:03.357Z,9.00
2023-04-07T11:47:42.221Z,8.90
2023-04-07T11:50:14.284Z,8.90
2023-04-07T11:52:46.161Z,8.80
2023-04-07T11:55:22.443Z,8.70
2023-04-07T11:57:52.263Z,8.70
2023-04-07T12:00:22.063Z,8.70
2023-04-07T12:02:51.725Z,8.70
2023-04-07T12:05:21.136Z,8.70
2023-04-07T12:07:57.934Z,8.70
2023-04-07T12:10:27.533Z,8.80
2023-04-07T12:12:58.153Z,8.80
2023-04-07T12:15:28.296Z,8.80
2023-04-07T12:17:57.654Z,8.90
2023-04-07T12:20:26.621Z,8.90
2023-04-07T12:22:56.877Z,8.90
2023-04-07T12:25:26.103Z,9.00
2023-04-07T12:27:54.774Z,9.00
2023-04-07T12:30:23.802Z,9.10
2023-04-07T12:32:53.058Z,9.00
2023-04-07T12:35:22.113Z,9.10
2023-04-07T12:37:52.158Z,9.00
2023-04-07T12:40:25.566Z,9.00
2023-04-07T12:42:54.268Z,9.00
2023-04-07T12:45:23.731Z,8.90
2023-04-07T12:47:52.790Z,9.00
2023-04-07T12:50:21.913Z,8.90
2023-04-07T12:52:51.384Z,9.00
2023-04-07T12:55:21.769Z,9.10
2023-04-07T12:57:50.589Z,9.10
2023-04-07T13:00:19.718Z,9.10
2023-04-07T13:02:48.712Z,9.10
2023-04-07T13:05:17.666Z,9.10
2023-04-07T13:07:48.291Z,9.00
2023-04-07T13:10:18.897Z,9.00
2023-04-07T13:12:49.734Z,9.00
2023-04-07T13:15:18.554Z,8.90
2023-04-07T13:17:48.055Z,8.90
2023-04-07T13:20:20.177Z,9.00
2023-04-07T13:23:02.897Z,9.00
2023-04-07T13:25:34.685Z,9.00
2023-04-07T13:28:05.002Z,9.10
2023-04-07T13:30:34.120Z,9.10
2023-04-07T13:33:03.340Z,9.00
2023-04-07T13:35:36.089Z,9.00
2023-04-07T13:38:05.028Z,9.00
2023-04-07T13:40:35.615Z,9.10
2023-04-07T13:43:06.725Z,9.10
2023-04-07T13:45:36.892Z,9.10
2023-04-07T13:48:06.692Z,9.10
2023-04-07T13:50:38.589Z,9.10
2023-04-07T13:53:07.617Z,9.10
2023-04-07T13:55:37.075Z,9.10
2023-04-07T13:58:07.797Z,9.10
2023-04-07T14:00:38.574Z,9.00
2023-04-07T14:03:08.664Z,9.00
2023-04-07T14:05:38.131Z,9.00
2023-04-07T14:08:06.961Z,8.90
2023-04-07T14:10:38.605Z,8.90
2023-04-07T14:13:08.949Z,8.90
2023-04-07T14:15:40.434Z,8.90
2023-04-07T14:18:09.625Z,8.90
2023-04-07T14:20:39.010Z,8.90
2023-04-07T14:23:07.972Z,8.90
2023-04-07T14:25:36.780Z,8.90
2023-04-07T14:28:08.385Z,8.90
2023-04-07T14:30:39.689Z,8.80
2023-04-07T14:33:08.993Z,8.90
2023-04-07T14:35:38.967Z,8.90
2023-04-07T14:38:07.769Z,8.90
2023-04-07T14:40:36.970Z,8.90
2023-04-07T14:43:07.705Z,8.90
2023-04-07T14:45:39.109Z,8.90
2023-04-07T14:48:08.602Z,8.90
2023-04-07T14:50:40.690Z,8.90
2023-04-07T14:53:09.641Z,8.90
2023-04-07T14:55:38.435Z,8.80
2023-04-07T14:58:07.840Z,8.90
2023-04-07T15:00:38.309Z,8.90
2023-04-07T15:03:07.373Z,8.90
2023-04-07T15:05:36.740Z,8.90
2023-04-07T15:08:05.707Z,9.00
2023-04-07T15:10:36.305Z,8.90
2023-04-07T15:13:05.486Z,9.00
2023-04-07T15:15:34.591Z,9.00
2023-04-07T15:18:05.152Z,9.00
2023-04-07T15:20:34.095Z,8.90
2023-04-07T15:23:02.836Z,8.90
2023-04-07T15:25:31.829Z,8.90
2023-04-07T15:28:00.651Z,8.80
2023-04-07T15:30:29.749Z,8.90
2023-04-07T15:33:00.552Z,9.00
2023-04-07T15:35:30.871Z,9.10
2023-04-07T15:38:00.389Z,9.10
2023-04-07T15:40:29.348Z,9.10
2023-04-07T15:42:58.133Z,9.10
2023-04-07T15:45:27.233Z,9.10
2023-04-07T15:47:56.348Z,9.00
2023-04-07T15:50:28.545Z,9.00
2023-04-07T15:52:58.766Z,8.90
2023-04-07T15:55:27.700Z,9.10
2023-04-07T15:57:56.945Z,9.10
2023-04-07T16:00:28.695Z,9.10
2023-04-07T16:02:58.202Z,9.10
2023-04-07T16:05:27.040Z,9.10
2023-04-07T16:07:57.755Z,9.10
2023-04-07T16:10:26.710Z,9.10
2023-04-07T16:12:55.676Z,9.10
2023-04-07T16:15:39.405Z,9.10
2023-04-07T16:18:10.527Z,9.10
2023-04-07T16:20:39.403Z,9.10
2023-04-07T16:23:10.704Z,9.10
2023-04-07T16:25:53.949Z,9.00
2023-04-07T16:28:22.763Z,9.00
2023-04-07T16:30:57.871Z,9.00
2023-04-07T16:33:28.354Z,9.00
2023-04-07T16:35:57.387Z,9.00
2023-04-07T16:38:29.496Z,9.10
2023-04-07T16:41:04.321Z,9.00
2023-04-07T16:43:34.384Z,9.00
2023-04-07T16:46:06.125Z,9.00
2023-04-07T16:48:35.184Z,8.90
2023-04-07T16:51:08.904Z,9.00
2023-04-07T16:53:39.575Z,9.00
2023-04-07T16:56:08.601Z,9.00
2023-04-07T16:58:37.804Z,9.00
2023-04-07T17:01:07.174Z,9.00
2023-04-07T17:03:36.475Z,9.00
2023-04-07T17:06:06.207Z,8.90
2023-04-07T17:08:35.377Z,8.90
2023-04-07T17:11:09.472Z,8.90
2023-04-07T17:13:42.223Z,9.00
2023-04-07T17:16:15.182Z,9.00
2023-04-07T17:18:44.430Z,9.10
2023-04-07T17:21:15.028Z,9.00
2023-04-07T17:23:44.576Z,9.10
2023-04-07T17:26:15.988Z,9.10
2023-04-07T17:28:50.792Z,9.10
2023-04-07T17:31:25.761Z,9.10
2023-04-07T17:33:59.697Z,9.10
2023-04-07T17:36:31.996Z,9.10
2023-04-07T17:39:01.185Z,9.10
2023-04-07T17:41:34.852Z,9.10
2023-04-07T17:44:03.736Z,9.10
2023-04-07T17:46:32.848Z,9.10
2023-04-07T17:49:02.383Z,9.10
2023-04-07T17:51:31.657Z,9.10
2023-04-07T17:54:00.715Z,9.10
2023-04-07T17:56:30.936Z,9.10
2023-04-07T17:59:00.126Z,9.00
2023-04-07T18:01:29.026Z,8.90
2023-04-07T18:03:58.135Z,8.80
2023-04-07T18:06:28.694Z,8.80
2023-04-07T18:08:57.809Z,8.80
2023-04-07T18:11:27.790Z,8.80
2023-04-07T18:14:00.058Z,8.80
2023-04-07T18:16:30.848Z,8.80
2023-04-07T18:19:00.695Z,8.80
2023-04-07T18:21:29.839Z,8.80
2023-04-07T18:24:00.301Z,8.90
2023-04-07T18:26:29.142Z,8.80
2023-04-07T18:29:02.431Z,8.80
2023-04-07T18:31:31.737Z,8.70
2023-04-07T18:34:01.715Z,8.70
2023-04-07T18:36:30.788Z,8.70
2023-04-07T18:39:00.049Z,8.70
2023-04-07T18:41:29.833Z,8.70
2023-04-07T18:44:00.389Z,8.70
2023-04-07T18:46:29.400Z,8.60
2023-04-07T18:48:58.462Z,8.60
2023-04-07T18:51:27.690Z,8.60
2023-04-07T18:53:56.938Z,8.60
2023-04-07T18:56:28.609Z,8.60
2023-04-07T18:58:57.474Z,8.60
2023-04-07T19:01:28.155Z,8.60
2023-04-07T19:03:58.409Z,8.60
2023-04-07T19:06:28.390Z,8.60
2023-04-07T19:08:57.966Z,8.60
2023-04-07T19:11:28.608Z,8.60
2023-04-07T19:13:57.950Z,8.60
2023-04-07T19:16:28.537Z,8.60
2023-04-07T19:18:57.350Z,8.50
2023-04-07T19:21:27.787Z,8.50
2023-04-07T19:23:57.504Z,8.40
2023-04-07T19:26:37.681Z,8.40
2023-04-07T19:29:07.362Z,8.40
2023-04-07T19:31:38.742Z,8.40
2023-04-07T19:34:14.062Z,8.50
2023-04-07T19:36:42.800Z,8.40
2023-04-07T19:39:13.096Z,8.40
2023-04-07T19:41:42.082Z,8.40
2023-04-07T19:44:14.034Z,8.40
2023-04-07T19:46:44.936Z,8.40
2023-04-07T19:49:13.807Z,8.50
2023-04-07T19:51:43.339Z,8.40
2023-04-07T19:54:12.391Z,8.50
2023-04-07T19:56:41.608Z,8.40
2023-04-07T19:59:10.938Z,8.40
2023-04-07T20:01:40.195Z,8.40
2023-04-07T20:04:13.231Z,8.30
2023-04-07T20:06:42.034Z,8.30
2023-04-07T20:09:11.201Z,8.30
2023-04-07T20:11:40.125Z,8.20
2023-04-07T20:14:09.436Z,8.20
2023-04-07T20:16:38.511Z,8.20
2023-04-07T20:19:08.841Z,8.20
2023-04-07T20:21:39.852Z,8.10
2023-04-07T20:24:08.942Z,8.00
2023-04-07T20:26:37.893Z,8.00
2023-04-07T20:29:08.468Z,8.00
2023-04-07T20:31:38.511Z,7.90
2023-04-07T20:34:10.310Z,7.90
2023-04-07T20:36:40.548Z,7.80
2023-04-07T20:39:09.795Z,7.80
2023-04-07T20:41:38.842Z,7.70
2023-04-07T20:44:07.855Z,7.70
2023-04-07T20:46:36.812Z,7.60
2023-04-07T20:49:08.106Z,7.60
2023-04-07T20:51:37.414Z,7.50
2023-04-07T20:54:08.029Z,7.50
2023-04-07T20:56:37.070Z,7.40
2023-04-07T20:59:06.401Z,7.30
2023-04-07T21:01:35.463Z,7.30
2023-04-07T21:04:04.630Z,7.20
2023-04-07T21:06:33.690Z,7.20
2023-04-07T21:09:02.709Z,7.00
2023-04-07T21:11:33.521Z,6.90
2023-04-07T21:14:02.409Z,6.90
2023-04-07T21:16:32.176Z,6.80
2023-04-07T21:19:06.746Z,6.70
2023-04-07T21:21:38.343Z,6.60
2023-04-07T21:24:08.506Z,6.60
2023-04-07T21:26:39.713Z,6.50
2023-04-07T21:29:09.110Z,6.50
2023-04-07T21:31:38.201Z,6.40
2023-04-07T21:34:10.602Z,6.40
2023-04-07T21:36:40.418Z,6.40
2023-04-07T21:39:14.122Z,6.30
2023-04-07T21:41:44.370Z,6.20
2023-04-07T21:44:15.571Z,6.10
2023-04-07T21:46:46.637Z,6.00
2023-04-07T21:49:18.174Z,6.00
2023-04-07T21:51:47.413Z,5.90
2023-04-07T21:54:16.547Z,6.00
2023-04-07T21:56:49.359Z,5.90
2023-04-07T21:59:18.511Z,5.90
2023-04-07T22:01:50.793Z,5.90
2023-04-07T22:04:20.110Z,5.90
2023-04-07T22:06:48.875Z,5.90
2023-04-07T22:09:17.703Z,5.80
2023-04-07T22:11:48.117Z,5.90
2023-04-07T22:14:17.489Z,5.90
2023-04-07T22:16:46.498Z,5.90
2023-04-07T22:19:20.690Z,5.90
2023-04-07T22:21:50.077Z,5.80
2023-04-07T22:24:18.913Z,5.70
2023-04-07T22:26:49.045Z,5.60
2023-04-07T22:29:17.925Z,5.60
2023-04-07T22:31:46.846Z,5.60
2023-04-07T22:34:15.934Z,5.50
2023-04-07T22:36:45.299Z,5.50
2023-04-07T22:39:14.208Z,5.40
2023-04-07T22:41:43.031Z,5.40
2023-04-07T22:44:15.628Z,5.40
2023-04-07T22:46:44.326Z,5.50
2023-04-07T22:49:13.107Z,5.50
2023-04-07T22:51:48.578Z,5.50
2023-04-07T22:54:17.885Z,5.50
2023-04-07T22:56:46.732Z,5.50
2023-04-07T22:59:17.065Z,5.50
2023-04-07T23:01:45.880Z,5.50
2023-04-07T23:04:14.713Z,5.50
2023-04-07T23:06:43.842Z,5.50
2023-04-07T23:09:12.835Z,5.50
2023-04-07T23:11:42.158Z,5.50
2023-04-07T23:14:11.476Z,5.40
2023-04-07T23:16:41.603Z,5.40
2023-04-07T23:19:11.895Z,5.40
2023-04-07T23:21:40.954Z,5.40
2023-04-07T23:24:09.592Z,5.30
2023-04-07T23:26:38.495Z,5.20
2023-04-07T23:29:07.148Z,5.20
2023-04-07T23:31:36.158Z,5.00
2023-04-07T23:34:06.441Z,5.00
2023-04-07T23:36:35.385Z,4.90
2023-04-07T23:39:04.122Z,4.90
2023-04-07T23:41:33.295Z,4.90
2023-04-07T23:44:02.590Z,4.90
2023-04-07T23:46:31.484Z,4.90
2023-04-07T23:49:00.207Z,4.90
2023-04-07T23:51:30.909Z,4.90
2023-04-07T23:53:59.469Z,4.70
2023-04-07T23:56:29.070Z,4.60
2023-04-07T23:58:57.909Z,4.50
